sensor_id;sensor_type;location;lat;lon;timestamp;P1;durP1;ratioP1;P2;durP2;ratioP2
25191;SDS011;13143;50.924;5.320;2022-11-20T00:01:39;41.50;;;24.23;;
25191;SDS011;13143;50.924;5.320;2022-11-20T00:04:05;41.97;;;23.88;;
25191;SDS011;13143;50.924;5.320;2022-11-20T00:06:31;40.88;;;24.30;;
25191;SDS011;13143;50.924;5.320;2022-11-20T00:08:57;42.85;;;24.05;;
25191;SDS011;13143;50.924;5.320;2022-11-20T00:11:25;43.00;;;24.90;;
25191;SDS011;13143;50.924;5.320;2022-11-20T00:13:52;45.05;;;25.42;;
25191;SDS011;13143;50.924;5.320;2022-11-20T00:16:21;41.10;;;23.63;;
25191;SDS011;13143;50.924;5.320;2022-11-20T00:18:48;42.15;;;23.45;;
25191;SDS011;13143;50.924;5.320;2022-11-20T00:21:16;42.55;;;24.15;;
25191;SDS011;13143;50.924;5.320;2022-11-20T00:23:46;42.40;;;24.52;;
25191;SDS011;13143;50.924;5.320;2022-11-20T00:26:13;37.65;;;22.52;;
25191;SDS011;13143;50.924;5.320;2022-11-20T00:28:41;43.25;;;23.73;;
25191;SDS011;13143;50.924;5.320;2022-11-20T00:31:10;42.85;;;24.08;;
25191;SDS011;13143;50.924;5.320;2022-11-20T00:33:38;40.80;;;22.73;;
25191;SDS011;13143;50.924;5.320;2022-11-20T00:36:05;40.50;;;23.52;;
25191;SDS011;13143;50.924;5.320;2022-11-20T00:38:33;38.40;;;23.35;;
25191;SDS011;13143;50.924;5.320;2022-11-20T00:41:02;44.65;;;23.50;;
25191;SDS011;13143;50.924;5.320;2022-11-20T00:43:30;41.35;;;24.60;;
25191;SDS011;13143;50.924;5.320;2022-11-20T00:45:56;42.45;;;23.88;;
25191;SDS011;13143;50.924;5.320;2022-11-20T00:48:26;43.88;;;23.92;;
25191;SDS011;13143;50.924;5.320;2022-11-20T00:50:52;41.22;;;24.08;;
25191;SDS011;13143;50.924;5.320;2022-11-20T00:53:18;44.83;;;25.40;;
25191;SDS011;13143;50.924;5.320;2022-11-20T00:55:52;42.20;;;23.88;;
25191;SDS011;13143;50.924;5.320;2022-11-20T00:58:22;44.08;;;24.58;;
25191;SDS011;13143;50.924;5.320;2022-11-20T01:00:48;40.17;;;24.40;;
25191;SDS011;13143;50.924;5.320;2022-11-20T01:03:15;46.42;;;25.52;;
25191;SDS011;13143;50.924;5.320;2022-11-20T01:05:41;40.75;;;24.00;;
25191;SDS011;13143;50.924;5.320;2022-11-20T01:08:07;42.25;;;23.95;;
25191;SDS011;13143;50.924;5.320;2022-11-20T01:10:33;42.25;;;23.85;;
25191;SDS011;13143;50.924;5.320;2022-11-20T01:12:58;51.50;;;25.33;;
25191;SDS011;13143;50.924;5.320;2022-11-20T01:15:42;52.22;;;25.95;;
25191;SDS011;13143;50.924;5.320;2022-11-20T01:18:08;37.92;;;23.70;;
25191;SDS011;13143;50.924;5.320;2022-11-20T01:20:37;43.17;;;24.92;;
25191;SDS011;13143;50.924;5.320;2022-11-20T01:23:03;45.53;;;25.80;;
25191;SDS011;13143;50.924;5.320;2022-11-20T01:25:29;49.92;;;26.23;;
25191;SDS011;13143;50.924;5.320;2022-11-20T01:27:55;51.13;;;26.17;;
25191;SDS011;13143;50.924;5.320;2022-11-20T01:30:21;44.80;;;25.55;;
25191;SDS011;13143;50.924;5.320;2022-11-20T01:32:46;53.03;;;26.20;;
25191;SDS011;13143;50.924;5.320;2022-11-20T01:35:12;44.85;;;25.58;;
25191;SDS011;13143;50.924;5.320;2022-11-20T01:37:38;52.78;;;26.00;;
25191;SDS011;13143;50.924;5.320;2022-11-20T01:40:03;47.63;;;26.25;;
25191;SDS011;13143;50.924;5.320;2022-11-20T01:42:29;46.38;;;24.98;;
25191;SDS011;13143;50.924;5.320;2022-11-20T01:48:17;44.42;;;25.65;;
25191;SDS011;13143;50.924;5.320;2022-11-20T01:50:44;48.47;;;25.02;;
25191;SDS011;13143;50.924;5.320;2022-11-20T01:53:11;43.28;;;23.85;;
25191;SDS011;13143;50.924;5.320;2022-11-20T01:55:42;39.03;;;22.80;;
25191;SDS011;13143;50.924;5.320;2022-11-20T01:58:13;41.60;;;23.95;;
25191;SDS011;13143;50.924;5.320;2022-11-20T02:00:39;41.28;;;23.52;;
25191;SDS011;13143;50.924;5.320;2022-11-20T02:03:06;39.60;;;22.65;;
25191;SDS011;13143;50.924;5.320;2022-11-20T02:05:41;37.47;;;22.17;;
25191;SDS011;13143;50.924;5.320;2022-11-20T02:08:16;36.47;;;23.10;;
25191;SDS011;13143;50.924;5.320;2022-11-20T02:10:44;41.88;;;24.70;;
25191;SDS011;13143;50.924;5.320;2022-11-20T02:13:09;38.08;;;23.83;;
25191;SDS011;13143;50.924;5.320;2022-11-20T02:15:54;40.15;;;23.40;;
25191;SDS011;13143;50.924;5.320;2022-11-20T02:18:20;39.92;;;23.38;;
25191;SDS011;13143;50.924;5.320;2022-11-20T02:20:49;37.80;;;23.85;;
25191;SDS011;13143;50.924;5.320;2022-11-20T02:23:25;38.90;;;22.23;;
25191;SDS011;13143;50.924;5.320;2022-11-20T02:26:05;46.13;;;24.80;;
25191;SDS011;13143;50.924;5.320;2022-11-20T02:28:34;44.63;;;23.10;;
25191;SDS011;13143;50.924;5.320;2022-11-20T02:31:00;41.17;;;23.20;;
25191;SDS011;13143;50.924;5.320;2022-11-20T02:33:26;39.00;;;23.52;;
25191;SDS011;13143;50.924;5.320;2022-11-20T02:35:51;39.45;;;22.75;;
25191;SDS011;13143;50.924;5.320;2022-11-20T02:38:17;41.50;;;24.15;;
25191;SDS011;13143;50.924;5.320;2022-11-20T02:40:43;39.80;;;23.30;;
25191;SDS011;13143;50.924;5.320;2022-11-20T02:43:09;40.95;;;24.25;;
25191;SDS011;13143;50.924;5.320;2022-11-20T02:45:35;41.30;;;23.10;;
25191;SDS011;13143;50.924;5.320;2022-11-20T02:48:00;39.75;;;23.58;;
25191;SDS011;13143;50.924;5.320;2022-11-20T02:50:26;39.50;;;23.02;;
25191;SDS011;13143;50.924;5.320;2022-11-20T02:52:52;40.10;;;22.90;;
25191;SDS011;13143;50.924;5.320;2022-11-20T02:55:17;37.40;;;22.98;;
25191;SDS011;13143;50.924;5.320;2022-11-20T02:57:43;39.05;;;22.92;;
25191;SDS011;13143;50.924;5.320;2022-11-20T03:00:09;38.25;;;23.70;;
25191;SDS011;13143;50.924;5.320;2022-11-20T03:02:35;39.17;;;22.80;;
25191;SDS011;13143;50.924;5.320;2022-11-20T03:05:00;40.40;;;23.45;;
25191;SDS011;13143;50.924;5.320;2022-11-20T03:07:26;39.85;;;23.20;;
25191;SDS011;13143;50.924;5.320;2022-11-20T03:09:52;35.45;;;23.55;;
25191;SDS011;13143;50.924;5.320;2022-11-20T03:12:17;42.38;;;23.80;;
25191;SDS011;13143;50.924;5.320;2022-11-20T03:14:43;35.33;;;22.10;;
25191;SDS011;13143;50.924;5.320;2022-11-20T03:17:08;38.42;;;23.58;;
25191;SDS011;13143;50.924;5.320;2022-11-20T03:19:34;41.17;;;23.48;;
25191;SDS011;13143;50.924;5.320;2022-11-20T03:22:00;38.10;;;23.23;;
25191;SDS011;13143;50.924;5.320;2022-11-20T03:24:25;35.75;;;22.13;;
25191;SDS011;13143;50.924;5.320;2022-11-20T03:26:51;41.25;;;24.08;;
25191;SDS011;13143;50.924;5.320;2022-11-20T03:29:17;38.22;;;23.75;;
25191;SDS011;13143;50.924;5.320;2022-11-20T03:31:42;41.03;;;22.17;;
25191;SDS011;13143;50.924;5.320;2022-11-20T03:34:09;41.03;;;22.52;;
25191;SDS011;13143;50.924;5.320;2022-11-20T03:36:39;39.22;;;23.50;;
25191;SDS011;13143;50.924;5.320;2022-11-20T03:39:06;40.00;;;23.05;;
25191;SDS011;13143;50.924;5.320;2022-11-20T03:41:35;41.95;;;23.58;;
25191;SDS011;13143;50.924;5.320;2022-11-20T03:44:03;35.92;;;22.00;;
25191;SDS011;13143;50.924;5.320;2022-11-20T03:46:31;37.63;;;23.65;;
25191;SDS011;13143;50.924;5.320;2022-11-20T03:48:57;38.10;;;22.33;;
25191;SDS011;13143;50.924;5.320;2022-11-20T03:51:26;37.92;;;22.25;;
25191;SDS011;13143;50.924;5.320;2022-11-20T03:53:54;43.55;;;23.80;;
25191;SDS011;13143;50.924;5.320;2022-11-20T03:56:23;40.28;;;22.85;;
25191;SDS011;13143;50.924;5.320;2022-11-20T03:58:53;39.65;;;23.77;;
25191;SDS011;13143;50.924;5.320;2022-11-20T04:01:20;38.42;;;24.02;;
25191;SDS011;13143;50.924;5.320;2022-11-20T04:03:47;37.97;;;22.88;;
25191;SDS011;13143;50.924;5.320;2022-11-20T04:06:18;38.85;;;23.52;;
25191;SDS011;13143;50.924;5.320;2022-11-20T04:08:45;45.03;;;24.23;;
25191;SDS011;13143;50.924;5.320;2022-11-20T04:11:12;44.17;;;24.75;;
25191;SDS011;13143;50.924;5.320;2022-11-20T04:13:42;49.75;;;24.55;;
25191;SDS011;13143;50.924;5.320;2022-11-20T04:16:10;51.20;;;24.95;;
25191;SDS011;13143;50.924;5.320;2022-11-20T04:18:36;43.85;;;24.52;;
25191;SDS011;13143;50.924;5.320;2022-11-20T04:21:02;44.97;;;23.65;;
25191;SDS011;13143;50.924;5.320;2022-11-20T04:23:29;43.05;;;25.13;;
25191;SDS011;13143;50.924;5.320;2022-11-20T04:25:54;47.55;;;24.10;;
25191;SDS011;13143;50.924;5.320;2022-11-20T04:28:26;43.53;;;23.98;;
25191;SDS011;13143;50.924;5.320;2022-11-20T04:30:51;45.90;;;24.63;;
25191;SDS011;13143;50.924;5.320;2022-11-20T04:33:17;55.58;;;27.13;;
25191;SDS011;13143;50.924;5.320;2022-11-20T04:35:42;52.33;;;25.77;;
25191;SDS011;13143;50.924;5.320;2022-11-20T04:38:10;44.35;;;23.60;;
25191;SDS011;13143;50.924;5.320;2022-11-20T04:40:36;48.90;;;26.73;;
25191;SDS011;13143;50.924;5.320;2022-11-20T04:43:01;52.15;;;25.73;;
25191;SDS011;13143;50.924;5.320;2022-11-20T04:45:27;53.17;;;24.77;;
25191;SDS011;13143;50.924;5.320;2022-11-20T04:47:53;60.83;;;26.80;;
25191;SDS011;13143;50.924;5.320;2022-11-20T04:50:18;47.72;;;27.75;;
25191;SDS011;13143;50.924;5.320;2022-11-20T04:52:44;50.38;;;25.80;;
25191;SDS011;13143;50.924;5.320;2022-11-20T04:55:09;57.75;;;27.42;;
25191;SDS011;13143;50.924;5.320;2022-11-20T04:57:35;49.80;;;26.02;;
25191;SDS011;13143;50.924;5.320;2022-11-20T05:00:01;62.42;;;28.48;;
25191;SDS011;13143;50.924;5.320;2022-11-20T05:02:26;54.25;;;26.98;;
25191;SDS011;13143;50.924;5.320;2022-11-20T05:04:52;53.65;;;27.23;;
25191;SDS011;13143;50.924;5.320;2022-11-20T05:07:17;57.28;;;26.80;;
25191;SDS011;13143;50.924;5.320;2022-11-20T05:09:43;56.85;;;28.15;;
25191;SDS011;13143;50.924;5.320;2022-11-20T05:12:09;53.30;;;27.00;;
25191;SDS011;13143;50.924;5.320;2022-11-20T05:14:34;55.55;;;27.77;;
25191;SDS011;13143;50.924;5.320;2022-11-20T05:17:00;59.67;;;28.83;;
25191;SDS011;13143;50.924;5.320;2022-11-20T05:19:26;57.08;;;28.50;;
25191;SDS011;13143;50.924;5.320;2022-11-20T05:21:51;55.13;;;27.77;;
25191;SDS011;13143;50.924;5.320;2022-11-20T05:24:17;57.72;;;27.50;;
25191;SDS011;13143;50.924;5.320;2022-11-20T05:26:43;53.75;;;26.42;;
25191;SDS011;13143;50.924;5.320;2022-11-20T05:29:11;56.40;;;28.95;;
25191;SDS011;13143;50.924;5.320;2022-11-20T05:31:38;58.38;;;28.65;;
25191;SDS011;13143;50.924;5.320;2022-11-20T05:34:05;54.28;;;27.55;;
25191;SDS011;13143;50.924;5.320;2022-11-20T05:36:31;57.88;;;29.25;;
25191;SDS011;13143;50.924;5.320;2022-11-20T05:38:57;55.47;;;28.35;;
25191;SDS011;13143;50.924;5.320;2022-11-20T05:41:22;51.17;;;28.85;;
25191;SDS011;13143;50.924;5.320;2022-11-20T05:43:49;62.30;;;30.77;;
25191;SDS011;13143;50.924;5.320;2022-11-20T05:46:16;57.45;;;28.80;;
25191;SDS011;13143;50.924;5.320;2022-11-20T05:48:45;56.88;;;28.00;;
25191;SDS011;13143;50.924;5.320;2022-11-20T05:51:11;62.53;;;29.40;;
25191;SDS011;13143;50.924;5.320;2022-11-20T05:53:41;59.60;;;28.17;;
25191;SDS011;13143;50.924;5.320;2022-11-20T05:56:09;62.10;;;28.75;;
25191;SDS011;13143;50.924;5.320;2022-11-20T05:58:36;58.47;;;29.58;;
25191;SDS011;13143;50.924;5.320;2022-11-20T06:01:16;58.67;;;30.55;;
25191;SDS011;13143;50.924;5.320;2022-11-20T06:03:44;62.00;;;30.83;;
25191;SDS011;13143;50.924;5.320;2022-11-20T06:06:12;58.63;;;29.27;;
25191;SDS011;13143;50.924;5.320;2022-11-20T06:08:43;58.08;;;29.83;;
25191;SDS011;13143;50.924;5.320;2022-11-20T06:11:10;60.53;;;30.33;;
25191;SDS011;13143;50.924;5.320;2022-11-20T06:13:37;58.80;;;29.42;;
25191;SDS011;13143;50.924;5.320;2022-11-20T06:16:03;68.38;;;29.65;;
25191;SDS011;13143;50.924;5.320;2022-11-20T06:18:30;59.85;;;29.92;;
25191;SDS011;13143;50.924;5.320;2022-11-20T06:20:59;64.70;;;30.65;;
25191;SDS011;13143;50.924;5.320;2022-11-20T06:23:32;63.58;;;31.83;;
25191;SDS011;13143;50.924;5.320;2022-11-20T06:26:02;65.68;;;31.65;;
25191;SDS011;13143;50.924;5.320;2022-11-20T06:28:29;66.22;;;31.63;;
25191;SDS011;13143;50.924;5.320;2022-11-20T06:30:55;62.75;;;30.98;;
25191;SDS011;13143;50.924;5.320;2022-11-20T06:33:21;57.30;;;29.55;;
25191;SDS011;13143;50.924;5.320;2022-11-20T06:35:46;59.55;;;30.70;;
25191;SDS011;13143;50.924;5.320;2022-11-20T06:38:12;65.28;;;31.27;;
25191;SDS011;13143;50.924;5.320;2022-11-20T06:40:39;61.13;;;31.45;;
25191;SDS011;13143;50.924;5.320;2022-11-20T06:43:09;63.80;;;31.83;;
25191;SDS011;13143;50.924;5.320;2022-11-20T06:45:35;62.42;;;31.73;;
25191;SDS011;13143;50.924;5.320;2022-11-20T06:48:01;60.47;;;32.00;;
25191;SDS011;13143;50.924;5.320;2022-11-20T06:50:28;59.88;;;31.48;;
25191;SDS011;13143;50.924;5.320;2022-11-20T06:52:54;62.05;;;31.33;;
25191;SDS011;13143;50.924;5.320;2022-11-20T06:55:19;65.15;;;30.75;;
25191;SDS011;13143;50.924;5.320;2022-11-20T06:57:45;62.75;;;31.27;;
25191;SDS011;13143;50.924;5.320;2022-11-20T07:00:11;62.55;;;32.17;;
25191;SDS011;13143;50.924;5.320;2022-11-20T07:02:37;64.18;;;31.85;;
25191;SDS011;13143;50.924;5.320;2022-11-20T07:05:02;60.47;;;30.98;;
25191;SDS011;13143;50.924;5.320;2022-11-20T07:07:28;67.63;;;30.58;;
25191;SDS011;13143;50.924;5.320;2022-11-20T07:09:54;63.90;;;32.13;;
25191;SDS011;13143;50.924;5.320;2022-11-20T07:12:20;61.38;;;31.13;;
25191;SDS011;13143;50.924;5.320;2022-11-20T07:14:45;62.80;;;31.40;;
25191;SDS011;13143;50.924;5.320;2022-11-20T07:17:11;69.28;;;31.70;;
25191;SDS011;13143;50.924;5.320;2022-11-20T07:19:37;63.40;;;31.88;;
25191;SDS011;13143;50.924;5.320;2022-11-20T07:22:02;58.53;;;31.38;;
25191;SDS011;13143;50.924;5.320;2022-11-20T07:24:28;65.82;;;32.28;;
25191;SDS011;13143;50.924;5.320;2022-11-20T07:26:53;58.75;;;30.52;;
25191;SDS011;13143;50.924;5.320;2022-11-20T07:29:19;56.80;;;29.83;;
25191;SDS011;13143;50.924;5.320;2022-11-20T07:31:44;54.30;;;29.73;;
25191;SDS011;13143;50.924;5.320;2022-11-20T07:34:10;60.25;;;30.42;;
25191;SDS011;13143;50.924;5.320;2022-11-20T07:36:36;58.92;;;28.95;;
25191;SDS011;13143;50.924;5.320;2022-11-20T07:39:01;58.35;;;30.20;;
25191;SDS011;13143;50.924;5.320;2022-11-20T07:41:27;59.42;;;28.42;;
25191;SDS011;13143;50.924;5.320;2022-11-20T07:43:53;56.15;;;28.48;;
25191;SDS011;13143;50.924;5.320;2022-11-20T07:46:19;55.22;;;29.85;;
25191;SDS011;13143;50.924;5.320;2022-11-20T07:48:45;61.30;;;29.83;;
25191;SDS011;13143;50.924;5.320;2022-11-20T07:51:10;62.95;;;30.48;;
25191;SDS011;13143;50.924;5.320;2022-11-20T07:53:36;59.28;;;30.17;;
25191;SDS011;13143;50.924;5.320;2022-11-20T07:56:02;63.67;;;32.28;;
25191;SDS011;13143;50.924;5.320;2022-11-20T07:58:28;64.80;;;32.35;;
25191;SDS011;13143;50.924;5.320;2022-11-20T08:00:55;62.03;;;30.75;;
25191;SDS011;13143;50.924;5.320;2022-11-20T08:03:21;60.90;;;31.02;;
25191;SDS011;13143;50.924;5.320;2022-11-20T08:05:46;65.32;;;31.08;;
25191;SDS011;13143;50.924;5.320;2022-11-20T08:08:12;63.42;;;32.53;;
25191;SDS011;13143;50.924;5.320;2022-11-20T08:10:37;64.82;;;30.65;;
25191;SDS011;13143;50.924;5.320;2022-11-20T08:13:03;66.60;;;33.45;;
25191;SDS011;13143;50.924;5.320;2022-11-20T08:15:48;69.13;;;32.38;;
25191;SDS011;13143;50.924;5.320;2022-11-20T08:18:17;66.07;;;33.65;;
25191;SDS011;13143;50.924;5.320;2022-11-20T08:20:43;72.53;;;34.75;;
25191;SDS011;13143;50.924;5.320;2022-11-20T08:23:09;70.03;;;33.92;;
25191;SDS011;13143;50.924;5.320;2022-11-20T08:25:35;70.32;;;34.25;;
25191;SDS011;13143;50.924;5.320;2022-11-20T08:28:06;65.78;;;32.67;;
25191;SDS011;13143;50.924;5.320;2022-11-20T08:30:33;66.65;;;32.30;;
25191;SDS011;13143;50.924;5.320;2022-11-20T08:33:05;67.88;;;32.75;;
25191;SDS011;13143;50.924;5.320;2022-11-20T08:35:33;73.57;;;35.78;;
25191;SDS011;13143;50.924;5.320;2022-11-20T08:38:03;80.68;;;36.55;;
25191;SDS011;13143;50.924;5.320;2022-11-20T08:40:30;74.00;;;34.85;;
25191;SDS011;13143;50.924;5.320;2022-11-20T08:42:56;79.95;;;36.35;;
25191;SDS011;13143;50.924;5.320;2022-11-20T08:45:22;73.82;;;34.67;;
25191;SDS011;13143;50.924;5.320;2022-11-20T08:47:47;71.97;;;35.13;;
25191;SDS011;13143;50.924;5.320;2022-11-20T08:50:13;78.57;;;35.90;;
25191;SDS011;13143;50.924;5.320;2022-11-20T08:52:40;75.25;;;34.55;;
25191;SDS011;13143;50.924;5.320;2022-11-20T08:55:06;75.20;;;34.97;;
25191;SDS011;13143;50.924;5.320;2022-11-20T08:57:33;75.63;;;34.53;;
25191;SDS011;13143;50.924;5.320;2022-11-20T09:00:00;72.85;;;32.78;;
25191;SDS011;13143;50.924;5.320;2022-11-20T09:02:26;73.53;;;33.75;;
25191;SDS011;13143;50.924;5.320;2022-11-20T09:04:51;80.38;;;34.65;;
25191;SDS011;13143;50.924;5.320;2022-11-20T09:07:18;71.70;;;33.65;;
25191;SDS011;13143;50.924;5.320;2022-11-20T09:09:44;73.38;;;34.75;;
25191;SDS011;13143;50.924;5.320;2022-11-20T09:12:10;76.15;;;35.00;;
25191;SDS011;13143;50.924;5.320;2022-11-20T09:14:35;80.20;;;36.17;;
25191;SDS011;13143;50.924;5.320;2022-11-20T09:17:01;78.00;;;33.72;;
25191;SDS011;13143;50.924;5.320;2022-11-20T09:19:27;80.38;;;34.15;;
25191;SDS011;13143;50.924;5.320;2022-11-20T09:21:52;77.22;;;33.72;;
25191;SDS011;13143;50.924;5.320;2022-11-20T09:24:18;79.30;;;35.40;;
25191;SDS011;13143;50.924;5.320;2022-11-20T09:26:45;74.47;;;34.17;;
25191;SDS011;13143;50.924;5.320;2022-11-20T09:29:11;78.38;;;34.08;;
25191;SDS011;13143;50.924;5.320;2022-11-20T09:31:37;83.82;;;35.13;;
25191;SDS011;13143;50.924;5.320;2022-11-20T09:34:02;85.28;;;36.15;;
25191;SDS011;13143;50.924;5.320;2022-11-20T09:36:28;80.53;;;34.80;;
25191;SDS011;13143;50.924;5.320;2022-11-20T09:38:54;82.78;;;34.72;;
25191;SDS011;13143;50.924;5.320;2022-11-20T09:41:31;80.60;;;34.35;;
25191;SDS011;13143;50.924;5.320;2022-11-20T09:55:55;97.15;;;37.33;;
25191;SDS011;13143;50.924;5.320;2022-11-20T10:00:55;92.45;;;34.30;;
25191;SDS011;13143;50.924;5.320;2022-11-20T10:03:48;98.90;;;35.00;;
25191;SDS011;13143;50.924;5.320;2022-11-20T10:06:21;101.72;;;35.53;;
25191;SDS011;13143;50.924;5.320;2022-11-20T10:17:33;98.28;;;34.50;;
25191;SDS011;13143;50.924;5.320;2022-11-20T10:28:56;100.75;;;35.53;;
25191;SDS011;13143;50.924;5.320;2022-11-20T10:31:34;97.90;;;34.55;;
25191;SDS011;13143;50.924;5.320;2022-11-20T10:34:06;97.13;;;36.15;;
25191;SDS011;13143;50.924;5.320;2022-11-20T10:36:41;104.18;;;36.55;;
25191;SDS011;13143;50.924;5.320;2022-11-20T10:39:15;106.43;;;36.30;;
25191;SDS011;13143;50.924;5.320;2022-11-20T10:41:46;100.45;;;37.92;;
25191;SDS011;13143;50.924;5.320;2022-11-20T10:44:17;105.20;;;38.35;;
25191;SDS011;13143;50.924;5.320;2022-11-20T10:47:08;110.20;;;37.78;;
25191;SDS011;13143;50.924;5.320;2022-11-20T10:49:40;99.20;;;36.63;;
25191;SDS011;13143;50.924;5.320;2022-11-20T10:52:13;102.07;;;36.83;;
25191;SDS011;13143;50.924;5.320;2022-11-20T10:54:59;110.28;;;36.83;;
25191;SDS011;13143;50.924;5.320;2022-11-20T11:00:13;104.82;;;35.33;;
25191;SDS011;13143;50.924;5.320;2022-11-20T11:02:40;104.20;;;36.00;;
25191;SDS011;13143;50.924;5.320;2022-11-20T11:07:45;113.65;;;38.63;;
25191;SDS011;13143;50.924;5.320;2022-11-20T11:13:00;112.35;;;37.95;;
25191;SDS011;13143;50.924;5.320;2022-11-20T11:15:35;101.88;;;37.10;;
25191;SDS011;13143;50.924;5.320;2022-11-20T11:18:03;100.13;;;35.72;;
25191;SDS011;13143;50.924;5.320;2022-11-20T11:20:28;112.13;;;36.70;;
25191;SDS011;13143;50.924;5.320;2022-11-20T11:22:58;110.22;;;36.22;;
25191;SDS011;13143;50.924;5.320;2022-11-20T11:25:31;109.05;;;35.55;;
25191;SDS011;13143;50.924;5.320;2022-11-20T11:28:04;105.60;;;36.88;;
25191;SDS011;13143;50.924;5.320;2022-11-20T11:30:43;102.25;;;35.80;;
25191;SDS011;13143;50.924;5.320;2022-11-20T11:33:10;108.28;;;36.72;;
25191;SDS011;13143;50.924;5.320;2022-11-20T11:35:47;103.90;;;35.78;;
25191;SDS011;13143;50.924;5.320;2022-11-20T11:38:16;105.57;;;35.58;;
25191;SDS011;13143;50.924;5.320;2022-11-20T11:40:46;109.75;;;35.35;;
25191;SDS011;13143;50.924;5.320;2022-11-20T11:46:34;100.85;;;35.83;;
25191;SDS011;13143;50.924;5.320;2022-11-20T11:51:38;100.53;;;33.20;;
25191;SDS011;13143;50.924;5.320;2022-11-20T11:54:15;95.28;;;34.05;;
25191;SDS011;13143;50.924;5.320;2022-11-20T11:57:03;89.63;;;33.08;;
25191;SDS011;13143;50.924;5.320;2022-11-20T12:02:38;98.78;;;34.00;;
25191;SDS011;13143;50.924;5.320;2022-11-20T12:05:21;94.22;;;32.63;;
25191;SDS011;13143;50.924;5.320;2022-11-20T12:16:14;89.93;;;30.77;;
25191;SDS011;13143;50.924;5.320;2022-11-20T12:18:42;74.55;;;30.00;;
25191;SDS011;13143;50.924;5.320;2022-11-20T12:23:58;73.80;;;28.63;;
25191;SDS011;13143;50.924;5.320;2022-11-20T12:29:53;37.80;;;16.85;;
25191;SDS011;13143;50.924;5.320;2022-11-20T12:41:27;18.58;;;6.57;;
25191;SDS011;13143;50.924;5.320;2022-11-20T12:50:31;14.80;;;4.93;;
25191;SDS011;13143;50.924;5.320;2022-11-20T13:04:07;7.75;;;3.60;;
25191;SDS011;13143;50.924;5.320;2022-11-20T13:06:33;12.52;;;3.17;;
25191;SDS011;13143;50.924;5.320;2022-11-20T13:08:59;11.30;;;3.20;;
25191;SDS011;13143;50.924;5.320;2022-11-20T13:16:41;7.95;;;2.47;;
25191;SDS011;13143;50.924;5.320;2022-11-20T13:19:11;5.80;;;2.30;;
25191;SDS011;13143;50.924;5.320;2022-11-20T13:21:41;9.63;;;2.60;;
25191;SDS011;13143;50.924;5.320;2022-11-20T13:26:48;11.30;;;4.75;;
25191;SDS011;13143;50.924;5.320;2022-11-20T13:32:16;9.88;;;4.35;;
25191;SDS011;13143;50.924;5.320;2022-11-20T13:38:12;11.80;;;3.27;;
25191;SDS011;13143;50.924;5.320;2022-11-20T13:40:55;11.35;;;3.70;;
25191;SDS011;13143;50.924;5.320;2022-11-20T13:46:02;8.70;;;2.58;;
25191;SDS011;13143;50.924;5.320;2022-11-20T13:48:31;19.65;;;3.13;;
25191;SDS011;13143;50.924;5.320;2022-11-20T13:54:11;12.85;;;3.10;;
25191;SDS011;13143;50.924;5.320;2022-11-20T14:01:57;16.67;;;3.22;;
25191;SDS011;13143;50.924;5.320;2022-11-20T14:04:26;13.18;;;3.90;;
25191;SDS011;13143;50.924;5.320;2022-11-20T14:06:57;14.50;;;3.30;;
25191;SDS011;13143;50.924;5.320;2022-11-20T14:09:28;11.07;;;2.88;;
25191;SDS011;13143;50.924;5.320;2022-11-20T14:11:55;21.20;;;3.65;;
25191;SDS011;13143;50.924;5.320;2022-11-20T14:14:21;11.23;;;3.20;;
25191;SDS011;13143;50.924;5.320;2022-11-20T14:16:49;16.10;;;2.95;;
25191;SDS011;13143;50.924;5.320;2022-11-20T14:21:53;13.00;;;3.42;;
25191;SDS011;13143;50.924;5.320;2022-11-20T14:24:31;12.52;;;3.38;;
25191;SDS011;13143;50.924;5.320;2022-11-20T14:26:57;14.57;;;3.55;;
25191;SDS011;13143;50.924;5.320;2022-11-20T14:29:23;16.80;;;3.78;;
25191;SDS011;13143;50.924;5.320;2022-11-20T14:31:54;12.18;;;3.70;;
25191;SDS011;13143;50.924;5.320;2022-11-20T14:34:22;10.43;;;3.65;;
25191;SDS011;13143;50.924;5.320;2022-11-20T14:37:00;10.55;;;3.75;;
25191;SDS011;13143;50.924;5.320;2022-11-20T14:39:34;13.82;;;3.70;;
25191;SDS011;13143;50.924;5.320;2022-11-20T14:42:01;8.80;;;3.42;;
25191;SDS011;13143;50.924;5.320;2022-11-20T14:44:33;8.43;;;3.58;;
25191;SDS011;13143;50.924;5.320;2022-11-20T14:47:00;10.27;;;3.83;;
25191;SDS011;13143;50.924;5.320;2022-11-20T14:49:29;11.98;;;4.22;;
25191;SDS011;13143;50.924;5.320;2022-11-20T14:52:00;10.15;;;3.58;;
25191;SDS011;13143;50.924;5.320;2022-11-20T14:54:27;11.57;;;3.55;;
25191;SDS011;13143;50.924;5.320;2022-11-20T14:56:58;11.13;;;3.88;;
25191;SDS011;13143;50.924;5.320;2022-11-20T14:59:27;10.23;;;3.90;;
25191;SDS011;13143;50.924;5.320;2022-11-20T15:01:55;10.85;;;3.60;;
25191;SDS011;13143;50.924;5.320;2022-11-20T15:04:22;12.10;;;4.03;;
25191;SDS011;13143;50.924;5.320;2022-11-20T15:06:49;10.43;;;3.90;;
25191;SDS011;13143;50.924;5.320;2022-11-20T15:09:16;10.52;;;4.18;;
25191;SDS011;13143;50.924;5.320;2022-11-20T15:11:50;11.18;;;4.20;;
25191;SDS011;13143;50.924;5.320;2022-11-20T15:14:22;12.55;;;4.40;;
25191;SDS011;13143;50.924;5.320;2022-11-20T15:16:49;7.70;;;3.92;;
25191;SDS011;13143;50.924;5.320;2022-11-20T15:19:20;11.98;;;4.72;;
25191;SDS011;13143;50.924;5.320;2022-11-20T15:21:47;11.50;;;4.47;;
25191;SDS011;13143;50.924;5.320;2022-11-20T15:24:13;11.73;;;4.90;;
25191;SDS011;13143;50.924;5.320;2022-11-20T15:26:39;9.75;;;5.07;;
25191;SDS011;13143;50.924;5.320;2022-11-20T15:29:07;14.73;;;4.90;;
25191;SDS011;13143;50.924;5.320;2022-11-20T15:31:35;12.65;;;5.03;;
25191;SDS011;13143;50.924;5.320;2022-11-20T15:34:02;12.13;;;4.63;;
25191;SDS011;13143;50.924;5.320;2022-11-20T15:36:28;9.43;;;4.32;;
25191;SDS011;13143;50.924;5.320;2022-11-20T15:38:53;12.20;;;5.13;;
25191;SDS011;13143;50.924;5.320;2022-11-20T15:41:19;10.98;;;5.07;;
25191;SDS011;13143;50.924;5.320;2022-11-20T15:43:44;9.60;;;4.53;;
25191;SDS011;13143;50.924;5.320;2022-11-20T15:46:14;7.35;;;4.07;;
25191;SDS011;13143;50.924;5.320;2022-11-20T15:48:45;8.18;;;3.17;;
25191;SDS011;13143;50.924;5.320;2022-11-20T15:53:42;6.80;;;3.22;;
25191;SDS011;13143;50.924;5.320;2022-11-20T15:56:11;8.20;;;3.25;;
25191;SDS011;13143;50.924;5.320;2022-11-20T15:58:38;8.05;;;2.80;;
25191;SDS011;13143;50.924;5.320;2022-11-20T16:01:04;5.57;;;2.83;;
25191;SDS011;13143;50.924;5.320;2022-11-20T16:03:30;5.53;;;2.60;;
25191;SDS011;13143;50.924;5.320;2022-11-20T16:05:56;5.93;;;2.38;;
25191;SDS011;13143;50.924;5.320;2022-11-20T16:08:22;5.88;;;2.58;;
25191;SDS011;13143;50.924;5.320;2022-11-20T16:10:48;5.97;;;2.83;;
25191;SDS011;13143;50.924;5.320;2022-11-20T16:13:14;10.00;;;2.67;;
25191;SDS011;13143;50.924;5.320;2022-11-20T16:16:05;7.20;;;2.90;;
25191;SDS011;13143;50.924;5.320;2022-11-20T16:18:34;10.70;;;3.10;;
25191;SDS011;13143;50.924;5.320;2022-11-20T16:21:00;5.13;;;3.15;;
25191;SDS011;13143;50.924;5.320;2022-11-20T16:23:25;6.97;;;3.47;;
25191;SDS011;13143;50.924;5.320;2022-11-20T16:25:51;10.90;;;4.20;;
25191;SDS011;13143;50.924;5.320;2022-11-20T16:28:17;14.73;;;4.28;;
25191;SDS011;13143;50.924;5.320;2022-11-20T16:30:43;11.10;;;4.75;;
25191;SDS011;13143;50.924;5.320;2022-11-20T16:33:13;7.30;;;4.22;;